createdAt,value
2019-02-27T00:03:43.609Z,3.80
2019-02-27T00:06:24.652Z,3.90
2019-02-27T00:09:05.482Z,3.90
2019-02-27T00:11:46.867Z,3.90
2019-02-27T00:14:28.853Z,3.70
2019-02-27T00:17:10.655Z,3.80
2019-02-27T00:19:51.667Z,3.80
2019-02-27T00:22:31.999Z,3.80
2019-02-27T00:25:13.185Z,3.80
2019-02-27T00:27:53.562Z,3.70
2019-02-27T00:30:37.978Z,3.70
2019-02-27T00:33:16.967Z,3.60
2019-02-27T00:35:57.626Z,3.60
2019-02-27T00:38:38.151Z,3.50
2019-02-27T00:41:18.827Z,3.50
2019-02-27T00:44:01.451Z,3.40
2019-02-27T00:46:44.029Z,3.30
2019-02-27T00:49:25.719Z,3.20
2019-02-27T00:51:54.630Z,3.00
2019-02-27T00:54:42.683Z,2.90
2019-02-27T00:57:30.720Z,2.80
2019-02-27T01:03:20.287Z,2.60
2019-02-27T01:06:00.586Z,2.60
2019-02-27T01:08:41.275Z,2.50
2019-02-27T01:11:24.822Z,2.40
2019-02-27T01:14:05.886Z,2.40
2019-02-27T01:16:47.650Z,2.30
2019-02-27T01:19:29.278Z,2.20
2019-02-27T01:22:10.383Z,2.10
2019-02-27T01:24:50.898Z,2.10
2019-02-27T01:27:31.649Z,1.90
2019-02-27T01:30:12.502Z,2.00
2019-02-27T01:32:53.149Z,1.90
2019-02-27T01:35:33.941Z,1.80
2019-02-27T01:38:14.831Z,1.70
2019-02-27T01:40:55.330Z,1.60
2019-02-27T01:43:36.873Z,1.50
2019-02-27T01:46:19.146Z,1.40
2019-02-27T01:52:13.009Z,1.30
2019-02-27T01:54:53.546Z,1.10
2019-02-27T01:57:36.799Z,1.20
2019-02-27T02:00:17.154Z,1.10
2019-02-27T02:02:57.737Z,1.10
2019-02-27T02:05:38.455Z,1.00
2019-02-27T02:08:19.127Z,1.00
2019-02-27T02:11:01.389Z,1.00
2019-02-27T02:13:42.696Z,0.90
2019-02-27T02:16:23.209Z,0.80
2019-02-27T02:19:06.846Z,0.70
2019-02-27T02:21:47.390Z,0.70
2019-02-27T02:24:28.181Z,0.50
2019-02-27T02:27:09.062Z,0.60
2019-02-27T02:29:52.970Z,0.60
2019-02-27T02:32:32.384Z,0.60
2019-02-27T02:35:15.763Z,0.50
2019-02-27T02:37:55.682Z,0.50
2019-02-27T02:40:36.326Z,0.40
2019-02-27T02:43:17.068Z,0.40
2019-02-27T02:45:57.788Z,0.30
2019-02-27T02:48:38.305Z,0.30
2019-02-27T02:51:19.182Z,0.30
2019-02-27T02:54:02.078Z,0.10
2019-02-27T02:56:43.151Z,0.20
2019-02-27T02:59:24.813Z,0.20
2019-02-27T03:02:06.830Z,0.10
2019-02-27T03:04:48.439Z,0.10
2019-02-27T03:07:30.511Z,0.00
2019-02-27T03:10:11.278Z,0.00
2019-02-27T03:12:52.133Z,-0.10
2019-02-27T03:15:33.083Z,-0.20
2019-02-27T03:18:31.621Z,-0.20
2019-02-27T03:21:28.543Z,-0.20
2019-02-27T03:24:35.106Z,-0.30
2019-02-27T03:27:42.343Z,-0.40
2019-02-27T03:30:49.600Z,-0.50
2019-02-27T03:34:05.446Z,-0.40
2019-02-27T03:37:05.999Z,-0.50
2019-02-27T03:40:13.238Z,-0.50
2019-02-27T03:43:20.479Z,-0.50
2019-02-27T03:46:27.735Z,-0.60
2019-02-27T03:49:39.668Z,-0.70
2019-02-27T03:52:43.952Z,-0.70
2019-02-27T03:55:51.189Z,-0.80
2019-02-27T03:58:58.450Z,-0.80
2019-02-27T04:02:06.825Z,-0.80
2019-02-27T04:04:47.959Z,-0.90
2019-02-27T04:07:31.464Z,-0.90
2019-02-27T04:10:09.327Z,-1.00
2019-02-27T04:12:57.471Z,-1.00
2019-02-27T04:15:45.699Z,-1.00
2019-02-27T04:18:33.054Z,-1.10
2019-02-27T04:21:25.011Z,-1.10
2019-02-27T04:24:11.066Z,-1.20
2019-02-27T04:26:59.215Z,-1.20
2019-02-27T04:29:48.353Z,-1.30
2019-02-27T04:32:36.586Z,-1.30
2019-02-27T04:35:24.727Z,-1.30
2019-02-27T04:38:12.878Z,-1.30
2019-02-27T04:41:01.016Z,-1.30
2019-02-27T04:43:49.153Z,-1.40
2019-02-27T04:46:37.298Z,-1.40
2019-02-27T04:49:25.670Z,-1.50
2019-02-27T04:52:13.818Z,-1.50
2019-02-27T04:55:01.966Z,-1.50
2019-02-27T04:57:50.106Z,-1.50
2019-02-27T05:00:19.398Z,-1.60
2019-02-27T05:03:00.650Z,-1.60
2019-02-27T05:05:41.988Z,-1.60
2019-02-27T05:08:26.894Z,-1.70
2019-02-27T05:11:06.020Z,-1.70
2019-02-27T05:13:46.791Z,-1.70
2019-02-27T05:16:27.442Z,-1.70
2019-02-27T05:19:08.287Z,-1.90
2019-02-27T05:21:52.281Z,-1.80
2019-02-27T05:24:31.896Z,-1.70
2019-02-27T05:27:12.639Z,-1.80
2019-02-27T05:29:53.582Z,-1.70
2019-02-27T05:32:34.582Z,-1.80
2019-02-27T05:35:15.626Z,-1.80
2019-02-27T05:37:44.654Z,-1.80
2019-02-27T05:40:14.117Z,-1.90
2019-02-27T05:43:02.250Z,-1.80
2019-02-27T05:45:50.622Z,-1.80
2019-02-27T05:48:39.001Z,-1.90
2019-02-27T05:51:27.147Z,-1.90
2019-02-27T05:54:15.294Z,-1.90
2019-02-27T05:57:03.749Z,-1.90
2019-02-27T05:59:51.892Z,-1.90
2019-02-27T06:02:41.891Z,-2.00
2019-02-27T06:05:29.959Z,-1.90
2019-02-27T06:08:18.111Z,-1.90
2019-02-27T06:10:47.128Z,-1.90
2019-02-27T06:13:35.270Z,-1.90
2019-02-27T06:16:23.406Z,-1.90
2019-02-27T06:19:11.577Z,-1.80
2019-02-27T06:21:59.766Z,-1.80
2019-02-27T06:24:47.905Z,-1.70
2019-02-27T06:27:37.197Z,-1.70
2019-02-27T06:30:30.327Z,-1.60
2019-02-27T06:33:15.885Z,-1.50
2019-02-27T06:36:05.416Z,-1.40
2019-02-27T06:38:54.157Z,-1.30
2019-02-27T06:41:42.229Z,-1.20
2019-02-27T06:44:30.384Z,-1.00
2019-02-27T06:47:18.518Z,-1.00
2019-02-27T06:50:07.454Z,-0.80
2019-02-27T06:52:55.539Z,-0.80
2019-02-27T06:55:43.674Z,-0.70
2019-02-27T06:58:32.053Z,-0.60
2019-02-27T07:01:20.181Z,-0.60
2019-02-27T07:04:02.254Z,-0.50
2019-02-27T07:06:43.699Z,-0.50
2019-02-27T07:09:25.042Z,-0.40
2019-02-27T07:12:07.089Z,-0.30
2019-02-27T07:14:48.390Z,-0.20
2019-02-27T07:17:31.862Z,-0.10
2019-02-27T07:20:11.955Z,0.10
2019-02-27T07:28:25.421Z,0.50
2019-02-27T07:31:06.014Z,0.70
2019-02-27T07:33:47.378Z,0.80
2019-02-27T07:39:10.503Z,1.10
2019-02-27T07:41:51.353Z,1.20
2019-02-27T07:44:34.967Z,1.40
2019-02-27T07:47:15.102Z,1.50
2019-02-27T07:49:55.699Z,1.70
2019-02-27T07:52:36.069Z,1.90
2019-02-27T07:55:21.842Z,2.00
2019-02-27T07:57:59.610Z,2.20
2019-02-27T08:00:40.445Z,2.30
2019-02-27T08:06:06.384Z,2.80
2019-02-27T08:08:47.319Z,3.00
2019-02-27T08:11:28.357Z,3.30
2019-02-27T08:14:10.253Z,3.50
2019-02-27T08:16:51.288Z,4.00
2019-02-27T08:19:32.038Z,4.40
2019-02-27T08:22:12.575Z,4.60
2019-02-27T08:24:53.442Z,4.80
2019-02-27T08:27:33.954Z,4.80
2019-02-27T08:30:14.923Z,4.90
2019-02-27T08:32:55.391Z,5.00
2019-02-27T08:35:36.168Z,5.20
2019-02-27T08:38:16.900Z,5.60
2019-02-27T08:40:58.499Z,6.10
2019-02-27T08:43:41.237Z,6.90
2019-02-27T08:46:21.983Z,7.80
2019-02-27T08:49:02.834Z,8.40
2019-02-27T08:51:43.311Z,8.40
2019-02-27T08:54:12.721Z,8.70
2019-02-27T08:57:01.347Z,8.80
2019-02-27T08:59:49.407Z,9.40
2019-02-27T09:02:39.622Z,10.40
2019-02-27T09:05:20.966Z,11.10
2019-02-27T09:08:02.194Z,11.90
2019-02-27T09:10:43.179Z,12.40
2019-02-27T09:13:12.450Z,12.10
2019-02-27T09:16:00.611Z,12.40
2019-02-27T09:18:48.676Z,12.60
2019-02-27T09:21:36.827Z,12.70
2019-02-27T09:24:25.452Z,13.00
2019-02-27T09:27:13.590Z,13.50
2019-02-27T09:30:02.747Z,14.30
2019-02-27T09:32:50.981Z,15.30
2019-02-27T09:35:39.122Z,16.20
2019-02-27T09:38:27.190Z,16.30
2019-02-27T09:41:15.330Z,17.40
2019-02-27T09:44:03.756Z,17.20
2019-02-27T09:46:52.511Z,17.40
2019-02-27T09:49:42.022Z,17.50
2019-02-27T09:52:30.764Z,17.30
2019-02-27T09:55:20.930Z,16.90
2019-02-27T09:58:11.546Z,17.50
2019-02-27T10:01:22.529Z,18.00
2019-02-27T10:04:03.251Z,18.10
2019-02-27T10:06:43.926Z,18.20
2019-02-27T10:09:24.577Z,18.10
2019-02-27T10:12:05.318Z,17.50
2019-02-27T10:14:47.906Z,17.40
2019-02-27T10:17:28.976Z,18.00
2019-02-27T10:20:09.833Z,17.00
2019-02-27T10:22:53.298Z,20.10
2019-02-27T10:25:33.050Z,21.30
2019-02-27T10:28:14.263Z,20.30
2019-02-27T10:30:55.337Z,22.60
2019-02-27T10:33:36.593Z,21.50
2019-02-27T10:36:17.798Z,20.30
2019-02-27T10:38:59.384Z,21.40
2019-02-27T10:41:41.323Z,20.50
2019-02-27T10:44:22.445Z,19.10
2019-02-27T10:47:03.066Z,19.50
2019-02-27T10:49:43.910Z,18.90
2019-02-27T10:52:25.043Z,18.60
2019-02-27T10:55:05.519Z,20.30
2019-02-27T10:57:46.427Z,20.40
2019-02-27T11:00:29.475Z,21.30
2019-02-27T11:03:10.236Z,19.70
2019-02-27T11:05:54.089Z,23.10
2019-02-27T11:08:34.167Z,20.80
2019-02-27T11:11:16.440Z,20.90
2019-02-27T11:13:57.279Z,24.60
2019-02-27T11:16:38.110Z,24.50
2019-02-27T11:19:07.147Z,26.70
2019-02-27T11:21:58.341Z,27.90
2019-02-27T11:24:49.118Z,27.10
2019-02-27T11:27:36.334Z,25.70
2019-02-27T11:30:25.910Z,22.80
2019-02-27T11:33:25.090Z,22.40
2019-02-27T11:36:05.637Z,24.20
2019-02-27T11:38:56.650Z,25.30
2019-02-27T11:41:46.069Z,26.90
2019-02-27T11:44:33.543Z,29.50
2019-02-27T11:47:21.750Z,27.20
2019-02-27T11:50:10.539Z,26.10
2019-02-27T11:53:01.805Z,28.40
2019-02-27T11:55:48.543Z,28.00
2019-02-27T11:58:38.382Z,25.80
2019-02-27T12:01:26.710Z,26.90
2019-02-27T12:04:07.394Z,26.70
2019-02-27T12:06:47.934Z,27.90
2019-02-27T12:09:28.750Z,27.10
2019-02-27T12:12:10.487Z,24.50
2019-02-27T12:14:51.696Z,24.50
2019-02-27T12:17:32.885Z,21.60
2019-02-27T12:20:17.938Z,20.70
2019-02-27T12:22:55.747Z,21.20
2019-02-27T12:25:36.305Z,21.80
2019-02-27T12:28:18.094Z,21.70
2019-02-27T12:30:59.703Z,22.80
2019-02-27T12:36:41.780Z,21.90
2019-02-27T12:39:23.061Z,23.00
2019-02-27T12:42:04.247Z,25.40
2019-02-27T12:44:46.202Z,25.50
2019-02-27T12:47:26.977Z,26.00
2019-02-27T12:50:07.915Z,27.90
2019-02-27T12:52:48.522Z,29.00
2019-02-27T12:55:29.518Z,27.90
2019-02-27T12:58:10.793Z,27.00
2019-02-27T13:00:51.709Z,25.80
2019-02-27T13:03:32.622Z,24.30
2019-02-27T13:09:00.141Z,20.40
2019-02-27T13:11:42.034Z,20.50
2019-02-27T13:14:23.578Z,21.10
2019-02-27T13:17:04.226Z,22.10
2019-02-27T13:19:44.831Z,24.20
2019-02-27T13:22:26.294Z,24.80
2019-02-27T13:25:08.240Z,23.80
2019-02-27T13:27:49.459Z,22.80
2019-02-27T13:30:30.080Z,22.70
2019-02-27T13:35:53.207Z,24.40
2019-02-27T13:38:34.047Z,22.30
2019-02-27T13:41:15.497Z,23.90
2019-02-27T13:43:58.221Z,23.80
2019-02-27T13:46:39.365Z,22.00
2019-02-27T13:49:20.087Z,22.40
2019-02-27T13:52:01.290Z,24.40
2019-02-27T13:54:42.139Z,24.20
2019-02-27T13:57:25.840Z,26.10
2019-02-27T14:00:06.128Z,27.10
2019-02-27T14:02:47.102Z,25.20
2019-02-27T14:05:29.430Z,25.80
2019-02-27T14:10:53.506Z,26.80
2019-02-27T14:13:34.757Z,25.10
2019-02-27T14:16:15.840Z,23.50
2019-02-27T14:18:56.373Z,23.20
2019-02-27T14:21:37.136Z,24.00
2019-02-27T14:24:20.439Z,24.30
2019-02-27T14:27:01.800Z,21.90
2019-02-27T14:29:42.372Z,22.10
2019-02-27T14:32:11.390Z,22.60
2019-02-27T14:35:00.590Z,21.70
2019-02-27T14:37:50.031Z,22.70
2019-02-27T14:40:41.252Z,21.10
2019-02-27T14:43:29.022Z,20.20
2019-02-27T14:46:17.920Z,19.70
2019-02-27T14:49:07.453Z,20.60
2019-02-27T14:51:55.597Z,20.30
2019-02-27T14:54:43.725Z,20.60
2019-02-27T14:57:31.866Z,20.40
2019-02-27T15:00:21.803Z,19.90
2019-02-27T15:03:10.035Z,19.10
2019-02-27T15:05:58.162Z,18.70
2019-02-27T15:08:57.326Z,18.30
2019-02-27T15:11:36.316Z,17.80
2019-02-27T15:14:24.440Z,17.50
2019-02-27T15:17:12.585Z,17.80
2019-02-27T15:20:19.827Z,17.60
2019-02-27T15:23:07.949Z,17.10
2019-02-27T15:25:56.326Z,17.00
2019-02-27T15:28:44.455Z,17.30
2019-02-27T15:31:33.023Z,17.20
2019-02-27T15:34:21.306Z,16.90
2019-02-27T15:37:09.439Z,16.60
2019-02-27T15:39:57.562Z,16.20
2019-02-27T15:42:45.693Z,15.90
2019-02-27T15:45:33.815Z,15.70
2019-02-27T15:48:22.170Z,15.60
2019-02-27T15:51:10.302Z,15.50
2019-02-27T15:53:58.434Z,15.40
2019-02-27T15:56:46.499Z,15.20
2019-02-27T15:59:40.843Z,15.00
2019-02-27T16:02:24.505Z,14.90
2019-02-27T16:05:05.720Z,14.70
2019-02-27T16:07:49.390Z,14.50
2019-02-27T16:10:29.065Z,14.40
2019-02-27T16:13:09.959Z,14.20
2019-02-27T16:15:50.926Z,14.10
2019-02-27T16:18:33.893Z,14.00
2019-02-27T16:21:14.928Z,13.80
2019-02-27T16:23:56.220Z,13.60
2019-02-27T16:26:37.319Z,13.50
2019-02-27T16:29:19.910Z,13.40
2019-02-27T16:32:00.812Z,13.20
2019-02-27T16:34:39.973Z,13.10
2019-02-27T16:37:28.371Z,13.00
2019-02-27T16:40:17.954Z,12.80
2019-02-27T16:43:06.556Z,12.60
2019-02-27T16:45:54.678Z,12.50
2019-02-27T16:48:42.819Z,12.40
2019-02-27T16:51:31.223Z,12.20
2019-02-27T16:54:20.788Z,12.00
2019-02-27T16:57:08.931Z,11.80
2019-02-27T16:59:56.982Z,11.60
2019-02-27T17:02:45.114Z,11.40
2019-02-27T17:05:25.911Z,11.20
2019-02-27T17:10:52.854Z,10.80
2019-02-27T17:13:33.894Z,10.70
2019-02-27T17:16:15.211Z,10.50
2019-02-27T17:18:59.185Z,10.30
2019-02-27T17:21:41.419Z,10.10
2019-02-27T17:24:22.432Z,9.90
2019-02-27T17:27:03.418Z,9.70
2019-02-27T17:29:44.053Z,9.60
2019-02-27T17:32:24.539Z,9.50
2019-02-27T17:35:05.166Z,9.40
2019-02-27T17:37:46.159Z,9.30
2019-02-27T17:40:26.693Z,9.20
2019-02-27T17:43:07.678Z,9.10
2019-02-27T17:45:48.611Z,9.00
2019-02-27T17:48:29.334Z,8.90
2019-02-27T17:51:09.891Z,8.70
2019-02-27T17:53:50.456Z,8.60
2019-02-27T17:56:31.301Z,8.40
2019-02-27T17:59:12.072Z,8.30
2019-02-27T18:01:41.070Z,8.00
2019-02-27T18:04:21.374Z,7.90
2019-02-27T18:07:02.190Z,7.80
2019-02-27T18:09:42.612Z,7.70
2019-02-27T18:12:26.796Z,7.70
2019-02-27T18:15:06.020Z,7.60
2019-02-27T18:17:47.161Z,7.50
2019-02-27T18:20:27.816Z,7.30
2019-02-27T18:23:08.483Z,7.30
2019-02-27T18:25:49.121Z,7.20
2019-02-27T18:28:32.751Z,7.10
2019-02-27T18:31:12.950Z,7.00
2019-02-27T18:33:53.679Z,6.80
2019-02-27T18:36:42.543Z,6.70
2019-02-27T18:39:17.126Z,6.60
2019-02-27T18:41:57.826Z,6.50
2019-02-27T18:44:41.525Z,6.40
2019-02-27T18:47:22.433Z,6.30
2019-02-27T18:50:03.330Z,6.20
2019-02-27T18:52:43.964Z,6.10
2019-02-27T18:55:29.442Z,6.00
2019-02-27T18:58:07.957Z,5.90
2019-02-27T19:00:48.627Z,5.80
2019-02-27T19:03:29.219Z,5.70
2019-02-27T19:06:12.035Z,5.60
2019-02-27T19:08:52.758Z,5.40
2019-02-27T19:11:33.139Z,5.40
2019-02-27T19:14:13.818Z,5.40
2019-02-27T19:16:55.013Z,5.30
2019-02-27T19:22:29.467Z,5.10
2019-02-27T19:25:10.095Z,5.10
2019-02-27T19:27:50.709Z,5.00
2019-02-27T19:30:31.624Z,5.00
2019-02-27T19:33:12.338Z,4.90
2019-02-27T19:35:55.959Z,4.80
2019-02-27T19:38:36.070Z,4.80
2019-02-27T19:41:16.804Z,4.70
2019-02-27T19:43:57.406Z,4.60
2019-02-27T19:46:38.437Z,4.60
2019-02-27T19:49:18.926Z,4.40
2019-02-27T19:51:59.383Z,4.30
2019-02-27T19:54:40.436Z,4.20
2019-02-27T19:57:21.075Z,4.20
2019-02-27T20:00:01.791Z,4.10
2019-02-27T20:02:42.400Z,4.00
2019-02-27T20:05:22.893Z,3.80
2019-02-27T20:08:03.687Z,3.80
2019-02-27T20:10:44.668Z,3.70
2019-02-27T20:13:28.216Z,3.70
2019-02-27T20:16:07.646Z,3.60
2019-02-27T20:21:30.523Z,3.50
2019-02-27T20:24:14.500Z,3.50
2019-02-27T20:26:57.203Z,3.40
2019-02-27T20:29:26.223Z,3.40
2019-02-27T20:32:14.984Z,3.40
2019-02-27T20:35:03.122Z,3.30
2019-02-27T20:37:51.271Z,3.20
2019-02-27T20:40:39.382Z,3.20
2019-02-27T20:43:29.552Z,3.20
2019-02-27T20:46:17.515Z,3.10
2019-02-27T20:49:05.938Z,3.10
2019-02-27T20:51:54.096Z,3.00
2019-02-27T20:54:42.227Z,2.90
2019-02-27T20:57:30.279Z,2.90
2019-02-27T21:00:18.886Z,2.80
2019-02-27T21:03:07.544Z,2.80
2019-02-27T21:05:48.690Z,2.70
2019-02-27T21:08:30.185Z,2.60
2019-02-27T21:11:10.611Z,2.60
2019-02-27T21:13:51.135Z,2.60
2019-02-27T21:16:33.669Z,2.50
2019-02-27T21:19:14.478Z,2.50
2019-02-27T21:21:55.076Z,2.50
2019-02-27T21:24:37.397Z,2.40
2019-02-27T21:27:19.007Z,2.40
2019-02-27T21:29:59.616Z,2.40
2019-02-27T21:32:40.427Z,2.30
2019-02-27T21:35:21.175Z,2.30
2019-02-27T21:38:05.246Z,2.20
2019-02-27T21:40:45.588Z,2.20
2019-02-27T21:43:26.346Z,2.20
2019-02-27T21:46:11.253Z,2.10
2019-02-27T21:48:50.155Z,2.00
2019-02-27T21:51:31.262Z,1.80
2019-02-27T21:54:11.947Z,1.90
2019-02-27T21:56:52.624Z,1.80
2019-02-27T21:59:33.287Z,1.80
2019-02-27T22:02:13.741Z,1.80
2019-02-27T22:04:54.318Z,1.70
2019-02-27T22:07:34.910Z,1.70
2019-02-27T22:10:19.167Z,1.50
2019-02-27T22:12:58.563Z,1.60
2019-02-27T22:15:37.779Z,1.60
2019-02-27T22:18:25.918Z,1.40
2019-02-27T22:21:14.347Z,1.50
2019-02-27T22:24:03.874Z,1.40
2019-02-27T22:26:51.992Z,1.40
2019-02-27T22:29:40.112Z,1.30
2019-02-27T22:32:28.164Z,1.30
2019-02-27T22:35:16.290Z,1.30
2019-02-27T22:38:05.817Z,1.20
2019-02-27T22:40:54.255Z,1.20
2019-02-27T22:43:42.387Z,1.20
2019-02-27T22:46:30.549Z,1.20
2019-02-27T22:49:18.687Z,1.00
2019-02-27T22:52:07.037Z,1.10
2019-02-27T22:54:55.547Z,1.00
2019-02-27T22:58:04.307Z,0.90
2019-02-27T23:01:15.004Z,0.80
2019-02-27T23:04:05.286Z,0.80
2019-02-27T23:06:54.178Z,0.80
2019-02-27T23:09:42.385Z,0.70
2019-02-27T23:12:30.510Z,0.70
2019-02-27T23:15:18.655Z,0.60
2019-02-27T23:18:07.006Z,0.60
2019-02-27T23:20:56.075Z,0.50
2019-02-27T23:23:45.238Z,0.50
2019-02-27T23:26:33.382Z,0.40
2019-02-27T23:29:21.516Z,0.50
2019-02-27T23:32:09.621Z,0.40
2019-02-27T23:34:57.768Z,0.40
2019-02-27T23:40:34.672Z,0.10
2019-02-27T23:43:22.842Z,0.30
2019-02-27T23:46:11.011Z,0.20
2019-02-27T23:48:59.125Z,0.20
2019-02-27T23:51:48.411Z,0.40
2019-02-27T23:54:37.098Z,0.10
2019-02-27T23:57:25.230Z,0.10
